• Join FlightAware (Why Join?)
  • Login
  • US Flag 
05:53AM EDT


 

Airport Tracker/Info


-or-


 

Live Flight TrackerFlight Track Log ✈ AAY860 ✈ 06-Jun-2014 ✈ KPIE - KLEX

Flight Track Log - Related Links

Times and Time Zones

All times are in EDT time to prevent confusion due to time zone crossing. See the AAY860 flight status page for this flight to view local times or setup timezone preferences in your user account.

Time Position Orientation Groundspeed Altitude Reporting Facility
EDT Latitude Longitude Course Direction KTS MPH feet Rate Location/Type
06:31AM 27.9167 -82.6833 330° Northwest 148 170 500  Level Tampa TRACON
06:32AM 27.9667 -82.6833 360° North 180 207 1,700 1,560 Climbing Tampa TRACON
06:33AM 28.0167 -82.6500 30° Northeast 284 327 3,400 2,340 Climbing Tampa TRACON
06:35AM 28.5025 -83.0564 330° Northwest  Level FlightAware Approximate
06:35AM 28.1447 -82.6239 10° North 279 321 8,100  Level Miami Center
06:35AM 28.2269 -82.6333 354° North 287 330 10,600 2,220 Climbing Jacksonville Center
06:36AM 28.3167 -82.6425 355° North 303 349 12,300 1,920 Climbing Jacksonville Center
06:37AM 28.4167 -82.6472 358° North 332 382 14,500 2,100 Climbing Jacksonville Center
06:38AM 28.5150 -82.6564 355° North 349 402 16,600 2,160 Climbing Jacksonville Center
06:39AM 28.5644 -82.6608 342° North 365 420 17,700 2,100 Climbing FlightAware ADS-B (KMCO)
06:39AM 28.6089 -82.6939 341° North 349 402 18,700 1,140 Climbing Jacksonville Center
06:40AM 28.6819 -82.7553 324° Northwest 349 402 19,500 900 Climbing Jacksonville Center
06:41AM 28.7656 -82.8264 323° Northwest 362 417 20,500 960 Climbing Jacksonville Center
06:42AM 28.8492 -82.8972 323° Northwest 374 430 21,500 960 Climbing Jacksonville Center
06:43AM 28.9347 -82.9708 323° Northwest 380 437 22,500 960 Climbing Jacksonville Center
06:44AM 29.0222 -83.0444 324° Northwest 386 444 23,500 960 Climbing Jacksonville Center
06:45AM 29.1139 -83.1208 324° Northwest 391 450 24,500 1,200 Climbing Jacksonville Center
06:46AM 29.2225 -83.1639 341° North 392 451 25,900 1,260 Climbing Jacksonville Center
06:47AM 29.3350 -83.1950 346° North 410 472 27,100 1,020 Climbing Jacksonville Center
06:48AM 29.4519 -83.2264 347° North 416 479 28,000 1,080 Climbing Jacksonville Center
06:49AM 29.5728 -83.2603 346° North 433 498 29,300 420 Climbing Jacksonville Center
06:55AM 30.3196 -83.4672 346° North 441 507 31,400 360 Climbing FlightAware ADS-B (KTLH)
06:56AM 30.3946 -83.4882 346° North 443 510 31,900 840 Climbing FlightAware ADS-B (KTLH)
06:57AM 30.4532 -83.5048 346° North 449 517 32,400 960 Climbing FlightAware ADS-B (KTLH)
06:57AM 30.5587 -83.5347 346° North 452 520 33,200 900 Climbing FlightAware ADS-B (KTLH)
06:58AM 30.6222 -83.5526 346° North 453 521 33,700 960 Climbing FlightAware ADS-B (KTLH)
06:58AM 30.6787 -83.5686 346° North 453 521 34,200 1,020 Climbing FlightAware ADS-B (KTLH)
06:59AM 30.7634 -83.5925 346° North 454 522 34,900 960 Climbing FlightAware ADS-B (KTLH)
07:00AM 30.8444 -83.6156 346° North 454 522 35,500 1,020 Climbing FlightAware ADS-B (KTLH)
07:00AM 30.9082 -83.6336 346° North 451 519 36,100 900 Climbing FlightAware ADS-B (KTLH)
07:01AM 30.9832 -83.6551 346° North 450 518 36,600 600 Climbing FlightAware ADS-B (KTLH)
07:02AM 31.0713 -83.6804 346° North 455 524 36,900 480 Climbing FlightAware ADS-B (KTLH)
07:02AM 31.1389 -83.7008 346° North 443 510 37,300 420 Climbing Jacksonville Center
07:04AM 31.3664 -83.7664 346° North 454 522 38,000 240 Climbing Atlanta Center
07:05AM 31.4856 -83.8050 345° North 449 517 38,000  Level Atlanta Center
07:06AM 31.6128 -83.8414 346° North 449 517 38,000  Level Atlanta Center
07:07AM 31.7194 -83.8656 349° North 449 517 38,000  Level Atlanta Center
07:08AM 31.8531 -83.9117 344° North 461 531 38,000  Level Atlanta Center
07:09AM 31.9761 -83.9458 347° North 461 531 38,000  Level Atlanta Center
07:10AM 32.1014 -83.9825 346° North 456 525 38,000  Level Atlanta Center
07:11AM 32.2267 -84.0192 346° North 456 525 38,000  Level Atlanta Center
07:12AM 32.3539 -84.0561 346° North 456 525 38,000 60 Level Atlanta Center
07:13AM 32.4814 -84.0783 352° North 456 525 38,200 300 Climbing Atlanta Center
07:14AM 32.6086 -84.0658 North 456 525 38,700 360 Climbing Atlanta Center
07:15AM 32.7400 -84.0611 North 461 531 39,000 120 Climbing Atlanta Center
07:16AM 32.8717 -84.0536 North 461 531 39,000  Level Atlanta Center
07:17AM 33.0031 -84.0486 North 461 531 39,000  Level Atlanta Center
07:18AM 33.1325 -84.0414 North 461 531 39,000  Level Atlanta Center
07:24AM 33.9593 -83.9973 North 463 533 39,000  Level FlightAware ADS-B (KDZJ)
07:24AM 34.0460 -83.9929 North 464 534 39,000  Level FlightAware ADS-B (KDZJ)
07:25AM 34.0904 -83.9954 354° North 470 541 39,000  Level FlightAware ADS-B (KDZJ)
07:25AM 34.1771 -84.0058 355° North 471 542 39,000  Level FlightAware ADS-B (KDZJ)
07:26AM 34.2648 -84.0159 354° North 465 535 39,000  Level FlightAware ADS-B (KDZJ)
07:27AM 34.3504 -84.0258 354° North 466 536 39,000  Level FlightAware ADS-B (KDZJ)
07:27AM 34.4403 -84.0366 354° North 472 543 39,000  Level FlightAware ADS-B (KDZJ)
07:28AM 34.5248 -84.0467 354° North 470 541 39,000  Level FlightAware ADS-B (KDZJ)
07:29AM 34.6078 -84.0564 354° North 468 539 39,000  Level FlightAware ADS-B (KDZJ)
07:29AM 34.6879 -84.0660 354° North 466 536 39,000  Level FlightAware ADS-B (KDZJ)
07:30AM 34.7846 -84.0776 355° North 466 536 39,000  Level FlightAware ADS-B (KDZJ)
07:31AM 34.8713 -84.0878 354° North 465 535 39,000  Level FlightAware ADS-B (KDZJ)
07:31AM 34.9530 -84.0976 354° North 456 525 39,000 -420 Level FlightAware ADS-B (KDZJ)
07:32AM 35.0398 -84.1078 354° North 451 519 38,500 -840 Descending FlightAware ADS-B (KDZJ)
07:33AM 35.1245 -84.1179 354° North 454 522 37,900 -900 Descending FlightAware ADS-B (KDZJ)
07:33AM 35.2079 -84.1281 354° North 436 502 37,300 -1,020 Descending FlightAware ADS-B (KDZJ)
07:34AM 35.2884 -84.1379 354° North 439 505 36,600 -1,080 Descending FlightAware ADS-B (KDZJ)
07:35AM 35.3756 -84.1485 354° North 454 522 35,900 -780 Descending FlightAware ADS-B (KDZJ)
07:36AM 35.4817 -84.1606 354° North 441 507 35,100 -720 Descending Indianapolis Center
07:37AM 35.6061 -84.1761 354° North 451 519 34,200 -900 Descending Indianapolis Center
07:38AM 35.7283 -84.1911 354° North 449 517 33,300 -1,020 Descending Indianapolis Center
07:39AM 35.8558 -84.2103 353° North 449 517 32,200 -1,020 Descending Atlanta Center
07:41AM 36.1056 -84.2372 355° North 453 521 30,300 -960 Descending Indianapolis Center
07:42AM 36.2508 -84.2719 349° North 451 519 29,200 -960 Descending Indianapolis Center
07:43AM 36.3619 -84.3250 339° North 437 503 28,400 -840 Descending Indianapolis Center
07:44AM 36.4694 -84.3769 339° North 424 488 27,500 -840 Descending Indianapolis Center
07:45AM 36.5708 -84.4233 340° North 402 463 26,700 -840 Descending Indianapolis Center
07:46AM 36.6725 -84.4536 347° North 386 444 25,800 -900 Descending Indianapolis Center
07:47AM 36.7772 -84.4747 351° North 384 442 24,900 -1,080 Descending Indianapolis Center
07:48AM 36.8850 -84.4736 360° North 385 443 23,700 -1,920 Descending Indianapolis Center
07:49AM 37.0081 -84.4742 360° North 381 438 21,000 -2,460 Descending Indianapolis Center
07:50AM 37.1150 -84.4742 360° North 381 438 18,700 -2,040 Descending Indianapolis Center
07:51AM 37.2194 -84.4731 360° North 379 436 16,900 -2,220 Descending Indianapolis Center
07:52AM 37.3178 -84.4731 360° North 361 415 14,200 -1,920 Descending Indianapolis Center
07:54AM 37.4131 -84.4756 359° North 349 402 13,000 -1,200 Descending Indianapolis Center
07:55AM 37.4986 -84.4831 356° North 316 364 11,800 -1,740 Descending Indianapolis Center
07:56AM 37.5786 -84.4847 359° North 291 335 9,500 -2,100 Descending Indianapolis Center
07:57AM 37.6569 -84.4911 356° North 287 330 7,500 -1,620 Descending Indianapolis Center
07:58AM 37.7444 -84.4981 356° North 273 314 6,300 -1,080 Descending Indianapolis Center
07:59AM 37.8022 -84.5386 331° Northwest 246 283 5,300 -1,020 Descending Indianapolis Center
08:00AM 37.8578 -84.5786 330° Northwest 231 266 4,300 -960 Descending Indianapolis Center
08:01AM 37.9061 -84.6128 331° Northwest 210 242 3,400 -840 Descending Indianapolis Center
08:02AM 37.9508 -84.6431 332° Northwest 190 219 2,700 -720 Descending Indianapolis Center
08:03AM 37.9875 -84.6550 346° North 154 177 2,000 -780 Descending Indianapolis Center
08:04AM 38.0258 -84.6225 34° Northeast 150 173 1,200 -840 Descending Indianapolis Center
08:06AM 38.0333 -84.6000 302° West  Level FlightAware Approximate